Ship Status Report: callsign CFN5364

sailwx.info

Track history (hours):
 
Tides and Currents Weather Stations Pressure Air Temp Water Temp Dewpoint Dewpoint Depression Visibility Wind Speed Wind Dir Waves Ship Positions

Callsign CFN5364 (name unknown)

Last reported at 2016-Aug-24 03:33 UTC. Time now 2016-Aug-25 11:30 UTC.
Position N 51°22' W 127°52'.

Date/timePositionNaut miles runAvg speedWind from/ knotsBaromVisibWave heightAir tempDewpointWater temp
2016-Aug-24 03:33N 51°22' W 127°52'10 0.3
2016-Aug-22 17:33N 51°32' W 127°52'1919.3
2016-Aug-22 16:33N 51°13' W 127°52'2019.6
2016-Aug-22 15:33N 50°55' W 127°39'13 1.5
2016-Aug-22 06:29N 50°44' W 127°27'1314.6
2016-Aug-22 05:34N 50°55' W 127°39'38 1.1
2016-Aug-20 17:15N 51°32' W 127°52'1419.5
2016-Aug-20 16:33N 51°19' W 127°52'1919.1
2016-Aug-20 15:33N 50°60' W 127°45'1818.2
2016-Aug-20 14:33N 50°45' W 127°28'2 0.2
2016-Aug-20 06:06N 50°44' W 127°27'713.2
2016-Aug-20 05:34N 50°51' W 127°30'1918.8
2016-Aug-20 04:33N 51°05' W 127°49'2419.5
2016-Aug-20 03:21N 51°29' W 127°51'3 0.1
2016-Aug-18 17:33N 51°32' W 127°52'2019.3
2016-Aug-18 16:30N 51°12' W 127°52'1819.2
2016-Aug-18 15:33N 50°55' W 127°40'14 2.8
2016-Aug-18 10:32N 50°44' W 127°27'0 0.0
2016-Aug-18 09:32N 50°44' W 127°27'0 0.0
2016-Aug-18 08:25N 50°44' W 127°27'0 0.0
2016-Aug-18 07:31N 50°44' W 127°27'0 0.0
2016-Aug-18 06:31N 50°44' W 127°27'3 2.9
2016-Aug-18 05:33N 50°46' W 127°27'1919.1
2016-Aug-18 04:34N 51°01' W 127°46'2019.8
2016-Aug-18 03:33N 51°21' W 127°52'  
2016-Aug-14 17:31N 51°32' W 127°52'2019.5
2016-Aug-14 16:30N 51°12' W 127°53'1818.9
2016-Aug-14 15:33N 50°56' W 127°41'1512.4
2016-Aug-14 14:20N 50°44' W 127°27'0 0.0
2016-Aug-14 13:33N 50°44' W 127°27'0 0.0
2016-Aug-14 12:32N 50°44' W 127°27'0 0.0
2016-Aug-14 11:19N 50°44' W 127°27'0 0.0
2016-Aug-14 07:30N 50°44' W 127°27'0 0.0
2016-Aug-14 06:18N 50°44' W 127°27'2916.7
2016-Aug-14 04:33N 51°08' W 127°51'  
Track history (hours):
 
Tides and Currents Weather Stations Pressure Air Temp Water Temp Dewpoint Dewpoint Depression Visibility Wind Speed Wind Dir Waves Ship Positions

Callsign CFN5364 (name unknown)

Last reported at 2016-Aug-24 03:33 UTC. Time now 2016-Aug-25 11:30 UTC.
Position N 51°22' W 127°52'.

Date/timePositionNaut miles runAvg speedWind from/ knotsBaromVisibWave heightAir tempDewpointWater temp
2016-Aug-24 03:33N 51°22' W 127°52'10 0.3
2016-Aug-22 17:33N 51°32' W 127°52'1919.3
2016-Aug-22 16:33N 51°13' W 127°52'2019.6
2016-Aug-22 15:33N 50°55' W 127°39'13 1.5
2016-Aug-22 06:29N 50°44' W 127°27'1314.6
2016-Aug-22 05:34N 50°55' W 127°39'38 1.1
2016-Aug-20 17:15N 51°32' W 127°52'1419.5
2016-Aug-20 16:33N 51°19' W 127°52'1919.1
2016-Aug-20 15:33N 50°60' W 127°45'1818.2
2016-Aug-20 14:33N 50°45' W 127°28'2 0.2
2016-Aug-20 06:06N 50°44' W 127°27'713.2
2016-Aug-20 05:34N 50°51' W 127°30'1918.8
2016-Aug-20 04:33N 51°05' W 127°49'2419.5
2016-Aug-20 03:21N 51°29' W 127°51'3 0.1
2016-Aug-18 17:33N 51°32' W 127°52'2019.3
2016-Aug-18 16:30N 51°12' W 127°52'1819.2
2016-Aug-18 15:33N 50°55' W 127°40'14 2.8
2016-Aug-18 10:32N 50°44' W 127°27'0 0.0
2016-Aug-18 09:32N 50°44' W 127°27'0 0.0
2016-Aug-18 08:25N 50°44' W 127°27'0 0.0
2016-Aug-18 07:31N 50°44' W 127°27'0 0.0
2016-Aug-18 06:31N 50°44' W 127°27'3 2.9
2016-Aug-18 05:33N 50°46' W 127°27'1919.1
2016-Aug-18 04:34N 51°01' W 127°46'2019.8
2016-Aug-18 03:33N 51°21' W 127°52'  
2016-Aug-14 17:31N 51°32' W 127°52'2019.5
2016-Aug-14 16:30N 51°12' W 127°53'1818.9
2016-Aug-14 15:33N 50°56' W 127°41'1512.4
2016-Aug-14 14:20N 50°44' W 127°27'0 0.0
2016-Aug-14 13:33N 50°44' W 127°27'0 0.0
2016-Aug-14 12:32N 50°44' W 127°27'0 0.0
2016-Aug-14 11:19N 50°44' W 127°27'0 0.0
2016-Aug-14 07:30N 50°44' W 127°27'0 0.0
2016-Aug-14 06:18N 50°44' W 127°27'2916.7
2016-Aug-14 04:33N 51°08' W 127°51'  

Dump ship's entire track history